createdAt,value
2022-10-20T00:00:09.474Z,11.10
2022-10-20T00:02:12.351Z,10.77
2022-10-20T00:04:15.589Z,12.80
2022-10-20T00:06:19.431Z,15.53
2022-10-20T00:08:22.354Z,11.73
2022-10-20T00:10:25.189Z,9.50
2022-10-20T00:12:28.028Z,13.23
2022-10-20T00:14:32.251Z,14.30
2022-10-20T00:16:37.085Z,14.30
2022-10-20T00:18:40.055Z,10.77
2022-10-20T00:20:42.885Z,14.40
2022-10-20T00:22:45.760Z,14.80
2022-10-20T00:24:48.601Z,8.33
2022-10-20T00:26:51.440Z,15.23
2022-10-20T00:28:54.502Z,11.73
2022-10-20T00:30:58.735Z,10.37
2022-10-20T00:33:02.845Z,12.30
2022-10-20T00:35:06.548Z,14.13
2022-10-20T00:37:09.368Z,11.87
2022-10-20T00:39:12.221Z,14.23
2022-10-20T00:41:15.376Z,14.10
2022-10-20T00:43:18.325Z,9.10
2022-10-20T00:45:21.926Z,9.57
2022-10-20T00:47:35.011Z,14.90
2022-10-20T00:49:37.968Z,11.90
2022-10-20T00:51:40.825Z,12.00
2022-10-20T00:53:43.957Z,13.07
2022-10-20T00:55:48.187Z,10.70
2022-10-20T00:57:51.541Z,11.43
2022-10-20T00:59:54.390Z,14.50
2022-10-20T01:01:57.264Z,15.33
2022-10-20T01:04:01.501Z,14.93
2022-10-20T01:06:04.833Z,21.47
2022-10-20T01:08:07.691Z,9.97
2022-10-20T01:10:10.934Z,15.77
2022-10-20T01:12:20.437Z,16.50
2022-10-20T01:14:31.117Z,9.27
2022-10-20T01:16:37.855Z,14.63
2022-10-20T01:18:43.153Z,9.73
2022-10-20T01:21:05.295Z,13.40
2022-10-20T01:23:43.975Z,14.90
2022-10-20T01:25:51.933Z,14.63
2022-10-20T01:27:56.751Z,18.97
2022-10-20T01:30:10.143Z,11.80
2022-10-20T01:32:17.272Z,13.90
2022-10-20T01:34:22.448Z,18.70
2022-10-20T01:36:28.561Z,12.73
2022-10-20T01:38:34.226Z,24.00
2022-10-20T01:40:39.170Z,21.93
2022-10-20T01:42:42.014Z,23.30
2022-10-20T01:44:46.247Z,26.67
2022-10-20T01:46:49.077Z,19.07
2022-10-20T01:48:51.951Z,26.53
2022-10-20T01:50:54.863Z,21.83
2022-10-20T01:52:58.382Z,16.40
2022-10-20T01:55:01.245Z,20.93
2022-10-20T01:57:13.997Z,14.63
2022-10-20T01:59:23.605Z,12.93
2022-10-20T02:01:33.767Z,12.60
2022-10-20T02:03:38.767Z,21.30
2022-10-20T02:05:49.864Z,19.13
2022-10-20T02:07:52.878Z,11.37
2022-10-20T02:09:57.098Z,16.07
2022-10-20T02:12:01.241Z,14.30
2022-10-20T02:14:04.113Z,16.73
2022-10-20T02:16:11.839Z,11.03
2022-10-20T02:18:18.041Z,12.17
2022-10-20T02:20:21.028Z,11.87
2022-10-20T02:22:23.886Z,12.50
2022-10-20T02:24:29.713Z,16.23
2022-10-20T02:26:32.668Z,14.73
2022-10-20T02:28:35.971Z,11.23
2022-10-20T02:30:39.081Z,14.77
2022-10-20T02:32:42.524Z,12.97
2022-10-20T02:34:46.756Z,18.80
2022-10-20T02:36:49.584Z,15.20
2022-10-20T02:38:52.431Z,10.90
2022-10-20T02:40:55.268Z,8.93
2022-10-20T02:42:58.105Z,15.90
2022-10-20T02:45:00.970Z,16.37
2022-10-20T02:47:03.801Z,11.53
2022-10-20T02:49:06.649Z,29.27
2022-10-20T02:51:10.873Z,11.77
2022-10-20T02:53:13.737Z,17.13
2022-10-20T02:57:24.434Z,13.70
2022-10-20T02:59:27.295Z,13.60
2022-10-20T03:01:30.169Z,8.20
2022-10-20T03:03:33.152Z,22.30
2022-10-20T03:05:40.364Z,16.10
2022-10-20T03:07:44.569Z,17.10
2022-10-20T03:09:47.449Z,16.20
2022-10-20T03:11:50.280Z,40.20
2022-10-20T03:13:53.155Z,41.37
2022-10-20T03:15:56.003Z,33.27
2022-10-20T03:17:58.850Z,21.07
2022-10-20T03:20:02.630Z,73.77
2022-10-20T03:22:05.526Z,47.87
2022-10-20T03:24:09.755Z,31.60
2022-10-20T03:26:12.732Z,22.50
2022-10-20T03:28:15.653Z,25.90
2022-10-20T03:30:18.603Z,17.80
2022-10-20T03:32:21.435Z,19.37
2022-10-20T03:34:24.369Z,23.10
2022-10-20T03:36:27.231Z,27.90
2022-10-20T03:38:30.096Z,45.37
2022-10-20T03:40:34.292Z,38.33
2022-10-20T03:42:37.480Z,22.73
2022-10-20T03:44:40.708Z,23.43
2022-10-20T03:46:43.567Z,27.73
2022-10-20T03:48:46.484Z,18.83
2022-10-20T03:50:49.329Z,31.27
2022-10-20T03:52:52.379Z,27.40
2022-10-20T03:54:55.232Z,23.03
2022-10-20T03:56:59.436Z,28.10
2022-10-20T03:59:05.232Z,54.43
2022-10-20T04:01:09.349Z,19.00
2022-10-20T04:03:12.237Z,17.10
2022-10-20T04:05:15.897Z,13.20
2022-10-20T04:07:18.757Z,14.07
2022-10-20T04:09:21.620Z,13.70
2022-10-20T04:11:26.802Z,12.57
2022-10-20T04:13:31.053Z,9.50
2022-10-20T04:15:33.917Z,8.90
2022-10-20T04:17:37.274Z,11.93
2022-10-20T04:19:40.142Z,14.27
2022-10-20T04:21:43.006Z,12.83
2022-10-20T04:23:45.866Z,9.00
2022-10-20T04:25:48.800Z,10.87
2022-10-20T04:27:51.663Z,11.83
2022-10-20T04:29:55.881Z,12.63
2022-10-20T04:31:58.775Z,11.63
2022-10-20T04:34:01.628Z,8.10
2022-10-20T04:36:05.839Z,13.03
2022-10-20T04:38:08.687Z,12.87
2022-10-20T04:40:12.374Z,12.40
2022-10-20T04:42:15.219Z,12.60
2022-10-20T04:44:18.276Z,9.53
2022-10-20T04:46:22.481Z,11.07
2022-10-20T04:48:25.417Z,12.03
2022-10-20T04:50:28.318Z,13.13
2022-10-20T04:52:31.140Z,6.77
2022-10-20T04:54:34.089Z,17.10
2022-10-20T04:56:36.920Z,9.60
2022-10-20T04:58:39.797Z,14.27
2022-10-20T05:00:42.637Z,8.47
2022-10-20T05:02:46.820Z,9.90
2022-10-20T05:04:49.651Z,10.83
2022-10-20T05:06:52.491Z,10.43
2022-10-20T05:08:56.253Z,10.47
2022-10-20T05:11:01.234Z,8.70
2022-10-20T05:13:04.100Z,12.93
2022-10-20T05:15:07.759Z,12.40
2022-10-20T05:17:10.602Z,8.43
2022-10-20T05:19:14.853Z,9.00
2022-10-20T05:21:18.837Z,7.87
2022-10-20T05:23:21.718Z,10.47
2022-10-20T05:25:36.177Z,8.17
2022-10-20T05:27:39.573Z,9.80
2022-10-20T05:29:42.445Z,8.60
2022-10-20T05:31:45.299Z,9.57
2022-10-20T05:33:48.801Z,12.60
2022-10-20T05:35:53.014Z,9.60
2022-10-20T05:37:56.033Z,11.90
2022-10-20T05:39:59.832Z,8.07
2022-10-20T05:42:02.696Z,9.83
2022-10-20T05:44:06.288Z,7.97
2022-10-20T05:46:09.397Z,12.80
2022-10-20T05:48:12.229Z,14.97
2022-10-20T05:50:15.090Z,8.33
2022-10-20T05:52:19.297Z,7.87
2022-10-20T05:54:22.237Z,12.97
2022-10-20T05:56:25.228Z,15.63
2022-10-20T05:58:28.073Z,6.60
2022-10-20T06:00:32.680Z,9.70
2022-10-20T06:02:35.767Z,11.80
2022-10-20T06:04:38.807Z,9.43
2022-10-20T06:06:41.646Z,12.27
2022-10-20T06:08:45.934Z,6.73
2022-10-20T06:10:48.819Z,20.30
2022-10-20T06:12:51.657Z,10.37
2022-10-20T06:14:54.529Z,11.10
2022-10-20T06:16:57.505Z,8.43
2022-10-20T06:19:00.432Z,8.13
2022-10-20T06:21:03.847Z,8.73
2022-10-20T06:23:06.680Z,9.83
2022-10-20T06:25:11.189Z,12.50
2022-10-20T06:27:14.029Z,8.33
2022-10-20T06:29:17.980Z,11.33
2022-10-20T06:31:21.629Z,9.57
2022-10-20T06:33:24.519Z,15.60
2022-10-20T06:35:27.400Z,10.33
2022-10-20T06:37:30.241Z,10.07
2022-10-20T06:39:33.108Z,13.93
2022-10-20T06:41:37.321Z,22.47
2022-10-20T06:43:40.180Z,9.10
2022-10-20T06:45:43.073Z,9.10
2022-10-20T06:47:45.932Z,11.00
2022-10-20T06:49:49.713Z,7.97
2022-10-20T06:51:52.569Z,11.63
2022-10-20T06:53:55.489Z,7.93
2022-10-20T06:55:58.732Z,11.40
2022-10-20T06:58:03.060Z,10.40
2022-10-20T07:00:06.947Z,7.17
2022-10-20T07:02:10.952Z,9.07
2022-10-20T07:04:15.731Z,10.70
2022-10-20T07:06:20.326Z,12.23
2022-10-20T07:08:23.301Z,17.60
2022-10-20T07:10:26.168Z,11.87
2022-10-20T07:12:29.005Z,10.57
2022-10-20T07:14:37.205Z,10.40
2022-10-20T07:16:40.039Z,10.70
2022-10-20T07:20:46.754Z,10.27
2022-10-20T07:22:49.599Z,12.80
2022-10-20T07:24:53.121Z,14.47
2022-10-20T07:26:55.964Z,15.23
2022-10-20T07:28:59.693Z,12.33
2022-10-20T07:31:05.103Z,9.90
2022-10-20T07:33:08.069Z,8.53
2022-10-20T07:35:10.964Z,7.50
2022-10-20T07:37:13.827Z,8.57
2022-10-20T07:39:16.695Z,8.20
2022-10-20T07:41:19.644Z,9.93
2022-10-20T07:43:22.481Z,10.40
2022-10-20T07:45:25.650Z,17.17
2022-10-20T07:47:29.845Z,11.17
2022-10-20T07:49:47.931Z,12.93
2022-10-20T07:51:50.785Z,7.43
2022-10-20T07:53:56.910Z,11.27
2022-10-20T07:56:02.650Z,11.80
2022-10-20T07:58:05.519Z,10.80
2022-10-20T08:00:09.690Z,10.93
2022-10-20T08:02:13.559Z,12.23
2022-10-20T08:04:17.905Z,11.03
2022-10-20T08:06:20.752Z,13.20
2022-10-20T08:08:23.597Z,9.33
2022-10-20T08:10:26.464Z,11.30
2022-10-20T08:12:29.329Z,16.50
2022-10-20T08:14:33.734Z,10.70
2022-10-20T08:16:36.668Z,11.57
2022-10-20T08:18:42.238Z,16.63
2022-10-20T08:20:49.603Z,10.73
2022-10-20T08:22:52.446Z,10.33
2022-10-20T08:24:55.316Z,11.10
2022-10-20T08:26:58.176Z,12.37
2022-10-20T08:29:02.608Z,15.40
2022-10-20T08:31:05.743Z,11.03
2022-10-20T08:33:08.611Z,10.30
2022-10-20T08:35:11.478Z,11.70
2022-10-20T08:37:15.695Z,13.97
2022-10-20T08:39:18.558Z,16.67
2022-10-20T08:41:22.384Z,20.23
2022-10-20T08:43:25.232Z,14.77
2022-10-20T08:45:29.114Z,11.50
2022-10-20T08:47:33.615Z,9.80
2022-10-20T08:49:36.743Z,13.60
2022-10-20T08:51:39.657Z,13.93
2022-10-20T08:53:43.854Z,16.10
2022-10-20T08:55:46.742Z,12.57
2022-10-20T08:57:49.716Z,15.30
2022-10-20T08:59:53.379Z,11.70
2022-10-20T09:01:56.367Z,12.43
2022-10-20T09:03:59.807Z,20.93
2022-10-20T09:06:06.292Z,12.50
2022-10-20T09:08:09.181Z,14.20
2022-10-20T09:10:23.363Z,11.10
2022-10-20T09:12:30.261Z,11.13
2022-10-20T09:14:34.886Z,12.93
2022-10-20T09:16:55.658Z,14.93
2022-10-20T09:19:02.072Z,10.57
2022-10-20T09:21:05.879Z,9.67
2022-10-20T09:23:28.212Z,12.23
2022-10-20T09:25:35.165Z,15.20
2022-10-20T09:27:39.890Z,11.93
2022-10-20T09:29:42.973Z,11.43
2022-10-20T09:31:46.479Z,9.47
2022-10-20T09:33:49.336Z,10.60
2022-10-20T09:35:52.226Z,10.47
2022-10-20T09:37:58.037Z,13.53
2022-10-20T09:40:00.905Z,10.80
2022-10-20T09:42:05.809Z,9.53
2022-10-20T09:44:10.045Z,9.50
2022-10-20T09:46:12.955Z,9.20
2022-10-20T09:48:19.309Z,12.20
2022-10-20T09:50:24.739Z,11.00
2022-10-20T09:52:30.563Z,11.03
2022-10-20T09:54:33.465Z,13.60
2022-10-20T09:56:36.937Z,13.47
2022-10-20T09:58:42.108Z,21.23
2022-10-20T10:00:49.016Z,11.00
2022-10-20T10:02:55.028Z,10.27
2022-10-20T10:05:14.680Z,8.43
2022-10-20T10:07:31.167Z,13.03
2022-10-20T10:09:35.166Z,12.33
2022-10-20T10:11:37.993Z,15.33
2022-10-20T10:13:43.732Z,9.40
2022-10-20T10:15:46.610Z,10.73
2022-10-20T10:17:49.474Z,14.48
2022-10-20T10:19:55.395Z,19.30
2022-10-20T10:22:00.105Z,13.87
2022-10-20T10:24:03.399Z,15.53
2022-10-20T10:26:06.356Z,8.10
2022-10-20T10:28:33.347Z,10.00
2022-10-20T10:30:39.289Z,12.03
2022-10-20T10:32:44.791Z,8.40
2022-10-20T10:35:08.734Z,10.27
2022-10-20T10:37:13.315Z,23.33
2022-10-20T10:39:16.376Z,15.07
2022-10-20T10:41:22.067Z,10.27
2022-10-20T10:43:30.446Z,8.10
2022-10-20T10:45:46.432Z,11.33
2022-10-20T10:48:20.184Z,14.10
2022-10-20T10:50:31.981Z,7.53
2022-10-20T10:52:42.456Z,9.50
2022-10-20T10:54:55.208Z,9.20
2022-10-20T10:56:59.181Z,9.90
2022-10-20T10:59:05.898Z,7.20
2022-10-20T11:01:20.960Z,11.53
2022-10-20T11:03:44.038Z,8.60
2022-10-20T11:06:03.891Z,11.63
2022-10-20T11:08:12.622Z,11.43
2022-10-20T11:10:19.090Z,10.50
2022-10-20T11:12:29.342Z,9.77
2022-10-20T11:14:36.384Z,13.37
2022-10-20T11:16:42.612Z,14.80
2022-10-20T11:19:08.593Z,13.33
2022-10-20T11:21:19.731Z,7.40
2022-10-20T11:23:45.056Z,9.03
2022-10-20T11:25:49.425Z,11.63
2022-10-20T11:27:52.261Z,16.93
2022-10-20T11:29:57.676Z,11.50
2022-10-20T11:32:06.553Z,13.50
2022-10-20T11:34:12.891Z,10.20
2022-10-20T11:36:17.321Z,17.70
2022-10-20T11:38:22.290Z,12.80
2022-10-20T11:40:26.001Z,7.57
2022-10-20T11:42:31.303Z,11.13
2022-10-20T11:44:36.274Z,14.33
2022-10-20T11:46:41.418Z,9.80
2022-10-20T11:48:46.651Z,9.27
2022-10-20T11:50:52.276Z,9.33
2022-10-20T11:53:22.167Z,10.30
2022-10-20T11:55:43.797Z,16.63
2022-10-20T11:57:56.396Z,8.53
2022-10-20T12:00:41.496Z,12.67
2022-10-20T12:02:58.597Z,11.03
2022-10-20T12:05:25.444Z,16.30
2022-10-20T12:07:41.262Z,9.67
2022-10-20T12:10:13.217Z,8.23
2022-10-20T12:12:16.803Z,10.50
2022-10-20T12:14:22.195Z,13.10
2022-10-20T12:17:01.459Z,15.03
2022-10-20T12:19:07.389Z,11.10
2022-10-20T12:21:12.011Z,9.47
2022-10-20T12:23:49.254Z,11.90
2022-10-20T12:25:52.133Z,14.17
2022-10-20T12:28:32.467Z,11.33
2022-10-20T12:30:45.277Z,8.30
2022-10-20T12:33:04.306Z,7.60
2022-10-20T12:35:33.710Z,9.07
2022-10-20T12:37:41.063Z,13.27
2022-10-20T12:39:46.389Z,10.93
2022-10-20T12:42:02.096Z,10.03
2022-10-20T12:44:06.421Z,9.80
2022-10-20T12:46:11.153Z,9.57
2022-10-20T12:48:20.214Z,10.10
2022-10-20T12:50:26.994Z,14.07
2022-10-20T12:52:32.222Z,18.20
2022-10-20T12:54:39.013Z,9.27
2022-10-20T12:56:41.837Z,21.20
2022-10-20T12:59:09.932Z,12.03
2022-10-20T13:01:12.922Z,11.20
2022-10-20T13:03:53.022Z,8.93
2022-10-20T13:05:55.881Z,10.03
2022-10-20T13:08:24.347Z,14.53
2022-10-20T13:10:33.145Z,8.27
2022-10-20T13:12:36.010Z,9.03
2022-10-20T13:14:57.406Z,16.80
2022-10-20T13:17:03.963Z,10.70
2022-10-20T13:19:08.118Z,12.47
2022-10-20T13:21:21.154Z,12.17
2022-10-20T13:23:26.869Z,17.23
2022-10-20T13:25:40.720Z,12.90
2022-10-20T13:27:43.594Z,23.87
2022-10-20T13:29:46.448Z,20.63
2022-10-20T13:31:52.789Z,15.30
2022-10-20T13:34:05.226Z,10.30
2022-10-20T13:36:12.799Z,11.20
2022-10-20T13:38:17.972Z,10.30
2022-10-20T13:40:24.295Z,12.13
2022-10-20T13:42:35.583Z,15.43
2022-10-20T13:44:43.524Z,26.40
2022-10-20T13:46:50.004Z,13.23
2022-10-20T13:49:06.509Z,17.90
2022-10-20T13:51:14.037Z,13.60
2022-10-20T13:53:22.195Z,12.43
2022-10-20T13:55:26.394Z,11.83
2022-10-20T13:57:31.698Z,15.17
2022-10-20T13:59:34.654Z,9.40
2022-10-20T14:01:37.543Z,11.47
2022-10-20T14:03:42.800Z,9.43
2022-10-20T14:05:45.681Z,10.90
2022-10-20T14:07:50.480Z,9.40
2022-10-20T14:09:58.068Z,20.40
2022-10-20T14:12:02.247Z,11.33
2022-10-20T14:14:06.452Z,13.07
2022-10-20T14:16:14.935Z,9.20
2022-10-20T14:18:25.573Z,12.57
2022-10-20T14:20:29.155Z,14.70
2022-10-20T14:22:33.222Z,12.40
2022-10-20T14:24:37.341Z,15.80
2022-10-20T14:26:43.920Z,11.07
2022-10-20T14:28:46.811Z,15.73
2022-10-20T14:30:51.549Z,7.57
2022-10-20T14:32:54.589Z,13.90
2022-10-20T14:34:59.587Z,18.10
2022-10-20T14:37:02.510Z,9.80
2022-10-20T14:39:05.382Z,13.53
2022-10-20T14:41:08.469Z,14.50
2022-10-20T14:43:17.825Z,9.60
2022-10-20T14:45:21.938Z,7.93
2022-10-20T14:47:26.177Z,12.57
2022-10-20T14:49:30.240Z,9.20
2022-10-20T14:51:36.852Z,10.87
2022-10-20T14:53:39.669Z,7.50
2022-10-20T14:55:42.510Z,7.10
2022-10-20T14:57:45.873Z,14.50
2022-10-20T14:59:53.761Z,10.90
2022-10-20T15:02:04.514Z,10.23
2022-10-20T15:04:17.036Z,15.93
2022-10-20T15:06:19.890Z,23.13
2022-10-20T15:08:26.230Z,20.00
2022-10-20T15:10:31.285Z,15.73
2022-10-20T15:12:39.117Z,9.00
2022-10-20T15:14:43.087Z,11.60
2022-10-20T15:16:46.796Z,7.50
2022-10-20T15:18:49.618Z,7.63
2022-10-20T15:20:53.907Z,15.63
2022-10-20T15:22:56.822Z,13.20
2022-10-20T15:24:59.656Z,10.90
2022-10-20T15:27:02.884Z,9.47
2022-10-20T15:29:07.947Z,7.77
2022-10-20T15:31:17.875Z,9.10
2022-10-20T15:33:21.265Z,8.40
2022-10-20T15:35:24.517Z,9.87
2022-10-20T15:37:28.838Z,14.20
2022-10-20T15:39:31.693Z,6.00
2022-10-20T15:41:35.426Z,10.53
2022-10-20T15:43:38.274Z,11.33
2022-10-20T15:45:42.453Z,9.37
2022-10-20T15:47:45.281Z,9.67
2022-10-20T15:49:48.189Z,8.83
2022-10-20T15:51:51.470Z,8.90
2022-10-20T15:53:55.863Z,8.03
2022-10-20T15:55:58.709Z,10.13
2022-10-20T15:58:01.693Z,6.90
2022-10-20T16:00:04.973Z,10.73
2022-10-20T16:02:10.224Z,8.40
2022-10-20T16:04:18.157Z,7.73
2022-10-20T16:06:21.008Z,7.90
2022-10-20T16:08:23.853Z,12.47
2022-10-20T16:10:29.624Z,10.63
2022-10-20T16:12:32.507Z,7.50
2022-10-20T16:14:37.974Z,11.50
2022-10-20T16:16:40.921Z,9.20
2022-10-20T16:18:43.746Z,7.40
2022-10-20T16:20:46.585Z,9.00
2022-10-20T16:22:49.398Z,7.37
2022-10-20T16:24:52.578Z,11.93
2022-10-20T16:26:56.792Z,9.47
2022-10-20T16:29:00.551Z,7.03
2022-10-20T16:31:05.476Z,10.80
2022-10-20T16:33:08.284Z,8.50
2022-10-20T16:35:11.513Z,13.67
2022-10-20T16:37:14.348Z,9.60
2022-10-20T16:39:17.368Z,13.67
2022-10-20T16:41:20.210Z,9.90
2022-10-20T16:43:24.394Z,9.80
2022-10-20T16:45:27.272Z,13.93
2022-10-20T16:47:30.120Z,9.40
2022-10-20T16:49:32.956Z,8.07
2022-10-20T16:51:35.818Z,14.77
2022-10-20T16:53:38.676Z,10.97
2022-10-20T16:55:41.546Z,12.97
2022-10-20T16:57:44.381Z,13.30
2022-10-20T16:59:50.046Z,15.53
2022-10-20T17:01:52.911Z,10.40
2022-10-20T17:03:55.735Z,11.57
2022-10-20T17:05:59.571Z,9.00
2022-10-20T17:08:02.819Z,10.37
2022-10-20T17:10:06.477Z,12.67
2022-10-20T17:12:09.316Z,15.43
2022-10-20T17:14:12.138Z,12.30
2022-10-20T17:16:17.316Z,12.60
2022-10-20T17:18:20.267Z,12.83
2022-10-20T17:20:23.112Z,14.90
2022-10-20T17:22:26.029Z,9.47
2022-10-20T17:24:28.951Z,22.27
2022-10-20T17:26:31.980Z,9.70
2022-10-20T17:28:36.099Z,12.23
2022-10-20T17:30:42.086Z,14.93
2022-10-20T17:32:46.268Z,18.13
2022-10-20T17:34:49.094Z,19.70
2022-10-20T17:36:51.969Z,13.07
2022-10-20T17:38:56.261Z,17.80
2022-10-20T17:41:03.980Z,15.03
2022-10-20T17:43:06.809Z,16.93
2022-10-20T17:45:10.405Z,14.23
2022-10-20T17:47:13.280Z,20.93
2022-10-20T17:49:17.485Z,14.57
2022-10-20T17:51:21.328Z,13.47
2022-10-20T17:53:24.189Z,16.10
2022-10-20T17:55:27.028Z,15.83
2022-10-20T17:57:30.540Z,11.10
2022-10-20T17:59:38.298Z,14.67
2022-10-20T18:01:50.382Z,15.87
2022-10-20T18:03:55.583Z,16.63
2022-10-20T18:05:59.797Z,16.27
2022-10-20T18:08:02.835Z,13.83
2022-10-20T18:10:06.239Z,15.80
2022-10-20T18:12:09.150Z,15.13
2022-10-20T18:14:11.987Z,20.60
2022-10-20T18:16:16.216Z,19.83
2022-10-20T18:18:19.043Z,15.17
2022-10-20T18:20:22.040Z,17.27
2022-10-20T18:22:26.315Z,22.43
2022-10-20T18:24:29.162Z,14.67
2022-10-20T18:26:32.968Z,18.33
2022-10-20T18:28:35.832Z,16.70
2022-10-20T18:30:38.764Z,19.93
2022-10-20T18:32:41.574Z,22.47
2022-10-20T18:34:44.421Z,16.73
2022-10-20T18:36:47.505Z,19.80
2022-10-20T18:38:53.291Z,19.90
2022-10-20T18:40:56.473Z,21.10
2022-10-20T18:43:00.348Z,16.70
2022-10-20T18:45:03.228Z,18.37
2022-10-20T18:47:06.072Z,17.50
2022-10-20T18:49:09.220Z,21.37
2022-10-20T18:51:13.688Z,15.30
2022-10-20T18:53:16.491Z,17.00
2022-10-20T18:55:20.949Z,17.33
2022-10-20T18:57:23.778Z,15.73
2022-10-20T18:59:26.619Z,16.03
2022-10-20T19:01:30.716Z,24.03
2022-10-20T19:03:34.209Z,15.27
2022-10-20T19:05:38.820Z,19.43
2022-10-20T19:07:41.840Z,15.90
2022-10-20T19:09:44.718Z,13.73
2022-10-20T19:13:56.882Z,17.27
2022-10-20T19:15:59.820Z,23.63
2022-10-20T19:18:02.613Z,22.97
2022-10-20T19:20:06.024Z,18.87
2022-10-20T19:22:08.877Z,16.93
2022-10-20T19:24:14.434Z,20.77
2022-10-20T19:26:18.410Z,22.70
2022-10-20T19:28:22.595Z,22.80
2022-10-20T19:30:25.462Z,24.63
2022-10-20T19:32:28.270Z,20.30
2022-10-20T19:34:32.343Z,19.60
2022-10-20T19:36:35.522Z,24.83
2022-10-20T19:38:38.324Z,20.90
2022-10-20T19:40:41.310Z,22.50
2022-10-20T19:42:44.131Z,23.50
2022-10-20T19:44:48.338Z,18.53
2022-10-20T19:46:51.523Z,31.93
2022-10-20T19:48:54.420Z,21.93
2022-10-20T19:50:57.304Z,25.83
2022-10-20T19:53:00.124Z,23.17
2022-10-20T19:55:02.995Z,17.27
2022-10-20T19:57:06.172Z,19.40
2022-10-20T19:59:09.017Z,16.20
2022-10-20T20:01:13.292Z,27.73
2022-10-20T20:03:16.142Z,23.40
2022-10-20T20:05:19.097Z,17.17
2022-10-20T20:07:22.009Z,19.90
2022-10-20T20:09:29.251Z,17.10
2022-10-20T20:11:32.130Z,18.93
2022-10-20T20:13:34.955Z,19.35
2022-10-20T20:15:37.819Z,18.20
2022-10-20T20:17:42.166Z,19.73
2022-10-20T20:19:44.993Z,24.90
2022-10-20T20:21:47.871Z,19.10
2022-10-20T20:23:59.364Z,20.60
2022-10-20T20:26:06.000Z,18.43
2022-10-20T20:28:08.828Z,19.83
2022-10-20T20:30:12.186Z,17.87
2022-10-20T20:32:15.104Z,22.80
2022-10-20T20:34:19.384Z,22.13
2022-10-20T20:36:22.255Z,19.30
2022-10-20T20:38:25.234Z,26.80
2022-10-20T20:40:28.110Z,24.47
2022-10-20T20:42:30.974Z,22.40
2022-10-20T20:44:33.804Z,23.67
2022-10-20T20:46:36.810Z,24.47
2022-10-20T20:48:39.658Z,20.97
2022-10-20T20:50:52.308Z,25.77
2022-10-20T20:52:55.124Z,32.53
2022-10-20T20:54:57.997Z,23.17
2022-10-20T20:57:00.857Z,26.90
2022-10-20T20:59:04.111Z,26.57
2022-10-20T21:01:08.143Z,27.40
2022-10-20T21:03:10.978Z,29.30
2022-10-20T21:05:13.837Z,26.47
2022-10-20T21:07:18.097Z,26.00
2022-10-20T21:09:21.014Z,24.63
2022-10-20T21:11:24.614Z,28.53
2022-10-20T21:13:27.467Z,29.93
2022-10-20T21:15:30.380Z,25.10
2022-10-20T21:17:33.214Z,26.30
2022-10-20T21:19:36.273Z,30.23
2022-10-20T21:21:40.286Z,29.47
2022-10-20T21:23:44.523Z,23.73
2022-10-20T21:25:47.492Z,27.17
2022-10-20T21:27:50.335Z,30.83
2022-10-20T21:29:53.172Z,25.70
2022-10-20T21:31:56.080Z,25.37
2022-10-20T21:33:59.619Z,26.27
2022-10-20T21:36:04.181Z,29.13
2022-10-20T21:38:07.017Z,27.13
2022-10-20T21:40:12.489Z,26.83
2022-10-20T21:42:15.345Z,38.33
2022-10-20T21:44:18.205Z,30.13
2022-10-20T21:46:23.008Z,27.00
2022-10-20T21:48:25.894Z,32.77
2022-10-20T21:50:28.769Z,32.77
2022-10-20T21:52:31.585Z,29.60
2022-10-20T21:54:34.429Z,33.17
2022-10-20T21:56:40.998Z,35.90
2022-10-20T21:58:43.891Z,30.23
2022-10-20T22:00:47.972Z,27.37
2022-10-20T22:02:51.044Z,27.93
2022-10-20T22:04:53.875Z,25.57
2022-10-20T22:06:57.002Z,27.87
2022-10-20T22:09:00.019Z,26.93
2022-10-20T22:11:04.295Z,31.57
2022-10-20T22:13:09.241Z,31.53
2022-10-20T22:15:12.138Z,36.50
2022-10-20T22:17:15.064Z,32.57
2022-10-20T22:19:18.766Z,29.20
2022-10-20T22:21:21.979Z,31.63
2022-10-20T22:23:24.832Z,33.50
2022-10-20T22:25:27.705Z,27.40
2022-10-20T22:27:31.595Z,29.90
2022-10-20T22:29:45.797Z,33.17
2022-10-20T22:31:48.658Z,36.70
2022-10-20T22:33:51.627Z,32.60
2022-10-20T22:35:54.493Z,33.83
2022-10-20T22:37:57.318Z,31.50
2022-10-20T22:40:00.186Z,35.03
2022-10-20T22:42:03.044Z,35.37
2022-10-20T22:44:05.992Z,33.07
2022-10-20T22:46:10.203Z,28.27
2022-10-20T22:48:13.064Z,28.90
2022-10-20T22:50:16.069Z,40.10
2022-10-20T22:52:18.925Z,28.43
2022-10-20T22:54:21.776Z,33.50
2022-10-20T22:56:24.701Z,33.17
2022-10-20T22:58:27.593Z,33.20
2022-10-20T23:00:30.448Z,30.50
2022-10-20T23:02:34.858Z,28.07
2022-10-20T23:04:37.772Z,40.93
2022-10-20T23:06:41.184Z,38.87
2022-10-20T23:08:46.378Z,28.33
2022-10-20T23:10:57.357Z,33.80
2022-10-20T23:13:00.177Z,31.10
2022-10-20T23:15:03.016Z,39.50
2022-10-20T23:17:05.860Z,28.20
2022-10-20T23:19:10.052Z,35.73
2022-10-20T23:21:13.424Z,34.10
2022-10-20T23:23:16.233Z,38.30
2022-10-20T23:25:19.063Z,33.43
2022-10-20T23:27:21.922Z,31.73
2022-10-20T23:29:24.944Z,48.43
2022-10-20T23:31:27.783Z,37.40
2022-10-20T23:33:30.616Z,42.93
2022-10-20T23:35:37.066Z,35.53
2022-10-20T23:37:40.247Z,35.37
2022-10-20T23:39:43.321Z,39.50
2022-10-20T23:41:46.167Z,33.50
2022-10-20T23:43:49.037Z,35.90
2022-10-20T23:45:51.868Z,48.73
2022-10-20T23:47:54.700Z,35.03
2022-10-20T23:49:57.554Z,39.13
2022-10-20T23:52:01.812Z,35.77
2022-10-20T23:54:04.778Z,31.23
2022-10-20T23:56:08.048Z,33.90
2022-10-20T23:58:11.096Z,38.97
